sensor_id;sensor_type;location;lat;lon;timestamp;P1;durP1;ratioP1;P2;durP2;ratioP2
7545;SDS011;3814;51.454;12.616;2022-08-21T00:01:16;35.85;;;19.27;;
7545;SDS011;3814;51.454;12.616;2022-08-21T00:03:43;31.08;;;18.17;;
7545;SDS011;3814;51.454;12.616;2022-08-21T00:06:08;32.15;;;19.08;;
7545;SDS011;3814;51.454;12.616;2022-08-21T00:08:34;34.53;;;19.15;;
7545;SDS011;3814;51.454;12.616;2022-08-21T00:10:59;31.15;;;17.48;;
7545;SDS011;3814;51.454;12.616;2022-08-21T00:13:24;28.77;;;16.45;;
7545;SDS011;3814;51.454;12.616;2022-08-21T00:15:50;30.33;;;16.45;;
7545;SDS011;3814;51.454;12.616;2022-08-21T00:18:15;30.23;;;16.13;;
7545;SDS011;3814;51.454;12.616;2022-08-21T00:20:42;28.17;;;16.08;;
7545;SDS011;3814;51.454;12.616;2022-08-21T00:23:08;30.83;;;15.65;;
7545;SDS011;3814;51.454;12.616;2022-08-21T00:25:34;27.33;;;16.55;;
7545;SDS011;3814;51.454;12.616;2022-08-21T00:27:59;22.63;;;13.90;;
7545;SDS011;3814;51.454;12.616;2022-08-21T00:30:26;24.65;;;15.35;;
7545;SDS011;3814;51.454;12.616;2022-08-21T00:32:53;22.40;;;12.98;;
7545;SDS011;3814;51.454;12.616;2022-08-21T00:35:22;22.98;;;13.95;;
7545;SDS011;3814;51.454;12.616;2022-08-21T00:37:49;21.25;;;13.25;;
7545;SDS011;3814;51.454;12.616;2022-08-21T00:40:15;21.98;;;12.43;;
7545;SDS011;3814;51.454;12.616;2022-08-21T00:42:43;24.45;;;13.75;;
7545;SDS011;3814;51.454;12.616;2022-08-21T00:45:08;21.33;;;13.25;;
7545;SDS011;3814;51.454;12.616;2022-08-21T00:47:34;21.00;;;12.25;;
7545;SDS011;3814;51.454;12.616;2022-08-21T00:49:59;21.02;;;13.13;;
7545;SDS011;3814;51.454;12.616;2022-08-21T00:52:27;20.42;;;11.88;;
7545;SDS011;3814;51.454;12.616;2022-08-21T00:54:54;19.88;;;11.48;;
7545;SDS011;3814;51.454;12.616;2022-08-21T00:57:22;19.20;;;10.80;;
7545;SDS011;3814;51.454;12.616;2022-08-21T00:59:51;17.27;;;11.13;;
7545;SDS011;3814;51.454;12.616;2022-08-21T01:02:18;19.10;;;11.52;;
7545;SDS011;3814;51.454;12.616;2022-08-21T01:04:45;19.17;;;12.02;;
7545;SDS011;3814;51.454;12.616;2022-08-21T01:07:11;19.98;;;11.00;;
7545;SDS011;3814;51.454;12.616;2022-08-21T01:09:37;19.90;;;11.35;;
7545;SDS011;3814;51.454;12.616;2022-08-21T01:12:03;20.23;;;12.15;;
7545;SDS011;3814;51.454;12.616;2022-08-21T01:14:29;18.00;;;10.73;;
7545;SDS011;3814;51.454;12.616;2022-08-21T01:16:54;20.40;;;11.10;;
7545;SDS011;3814;51.454;12.616;2022-08-21T01:19:21;18.90;;;11.20;;
7545;SDS011;3814;51.454;12.616;2022-08-21T01:21:47;16.33;;;10.65;;
7545;SDS011;3814;51.454;12.616;2022-08-21T01:24:12;19.33;;;10.70;;
7545;SDS011;3814;51.454;12.616;2022-08-21T01:26:38;21.77;;;11.32;;
7545;SDS011;3814;51.454;12.616;2022-08-21T01:29:06;19.50;;;12.15;;
7545;SDS011;3814;51.454;12.616;2022-08-21T01:31:35;18.27;;;11.45;;
7545;SDS011;3814;51.454;12.616;2022-08-21T01:34:02;16.70;;;9.32;;
7545;SDS011;3814;51.454;12.616;2022-08-21T01:36:28;18.40;;;10.05;;
7545;SDS011;3814;51.454;12.616;2022-08-21T01:38:53;18.27;;;10.20;;
7545;SDS011;3814;51.454;12.616;2022-08-21T01:41:18;14.88;;;9.57;;
7545;SDS011;3814;51.454;12.616;2022-08-21T01:43:44;16.48;;;9.80;;
7545;SDS011;3814;51.454;12.616;2022-08-21T01:46:10;16.17;;;8.98;;
7545;SDS011;3814;51.454;12.616;2022-08-21T01:48:36;17.25;;;9.65;;
7545;SDS011;3814;51.454;12.616;2022-08-21T01:51:01;16.63;;;9.98;;
7545;SDS011;3814;51.454;12.616;2022-08-21T01:53:27;15.60;;;9.70;;
7545;SDS011;3814;51.454;12.616;2022-08-21T01:55:52;16.20;;;10.40;;
7545;SDS011;3814;51.454;12.616;2022-08-21T01:58:18;18.70;;;10.43;;
7545;SDS011;3814;51.454;12.616;2022-08-21T02:00:43;17.42;;;9.98;;
7545;SDS011;3814;51.454;12.616;2022-08-21T02:03:08;14.88;;;9.25;;
7545;SDS011;3814;51.454;12.616;2022-08-21T02:05:34;14.70;;;8.70;;
7545;SDS011;3814;51.454;12.616;2022-08-21T02:08:00;15.80;;;8.48;;
7545;SDS011;3814;51.454;12.616;2022-08-21T02:10:27;17.17;;;9.48;;
7545;SDS011;3814;51.454;12.616;2022-08-21T02:12:54;14.40;;;8.85;;
7545;SDS011;3814;51.454;12.616;2022-08-21T02:15:20;15.60;;;8.70;;
7545;SDS011;3814;51.454;12.616;2022-08-21T02:17:47;17.40;;;9.82;;
7545;SDS011;3814;51.454;12.616;2022-08-21T02:20:22;13.77;;;8.98;;
7545;SDS011;3814;51.454;12.616;2022-08-21T02:22:52;13.40;;;8.10;;
7545;SDS011;3814;51.454;12.616;2022-08-21T02:25:18;15.05;;;8.38;;
7545;SDS011;3814;51.454;12.616;2022-08-21T02:27:45;13.02;;;7.90;;
7545;SDS011;3814;51.454;12.616;2022-08-21T02:30:18;12.98;;;7.30;;
7545;SDS011;3814;51.454;12.616;2022-08-21T02:32:47;17.13;;;7.97;;
7545;SDS011;3814;51.454;12.616;2022-08-21T02:35:12;12.13;;;8.02;;
7545;SDS011;3814;51.454;12.616;2022-08-21T02:37:49;13.45;;;8.43;;
7545;SDS011;3814;51.454;12.616;2022-08-21T02:40:17;11.35;;;7.53;;
7545;SDS011;3814;51.454;12.616;2022-08-21T02:42:45;12.00;;;7.65;;
7545;SDS011;3814;51.454;12.616;2022-08-21T02:45:11;13.32;;;7.45;;
7545;SDS011;3814;51.454;12.616;2022-08-21T02:47:37;13.25;;;8.02;;
7545;SDS011;3814;51.454;12.616;2022-08-21T02:50:03;13.77;;;7.40;;
7545;SDS011;3814;51.454;12.616;2022-08-21T02:52:29;12.50;;;7.75;;
7545;SDS011;3814;51.454;12.616;2022-08-21T02:54:55;11.50;;;6.95;;
7545;SDS011;3814;51.454;12.616;2022-08-21T02:57:20;12.45;;;7.38;;
7545;SDS011;3814;51.454;12.616;2022-08-21T02:59:45;10.80;;;6.97;;
7545;SDS011;3814;51.454;12.616;2022-08-21T03:02:11;11.15;;;6.78;;
7545;SDS011;3814;51.454;12.616;2022-08-21T03:04:37;12.00;;;6.80;;
7545;SDS011;3814;51.454;12.616;2022-08-21T03:07:02;10.13;;;6.03;;
7545;SDS011;3814;51.454;12.616;2022-08-21T03:09:28;9.10;;;6.25;;
7545;SDS011;3814;51.454;12.616;2022-08-21T03:11:53;9.55;;;6.10;;
7545;SDS011;3814;51.454;12.616;2022-08-21T03:14:18;9.00;;;6.00;;
7545;SDS011;3814;51.454;12.616;2022-08-21T03:16:44;11.30;;;6.05;;
7545;SDS011;3814;51.454;12.616;2022-08-21T03:19:09;9.05;;;5.88;;
7545;SDS011;3814;51.454;12.616;2022-08-21T03:21:36;10.00;;;6.20;;
7545;SDS011;3814;51.454;12.616;2022-08-21T03:24:01;11.32;;;6.07;;
7545;SDS011;3814;51.454;12.616;2022-08-21T03:26:27;10.82;;;5.95;;
7545;SDS011;3814;51.454;12.616;2022-08-21T03:28:53;9.48;;;5.72;;
7545;SDS011;3814;51.454;12.616;2022-08-21T03:31:18;13.50;;;6.03;;
7545;SDS011;3814;51.454;12.616;2022-08-21T03:33:44;8.63;;;5.53;;
7545;SDS011;3814;51.454;12.616;2022-08-21T03:36:09;9.50;;;5.97;;
7545;SDS011;3814;51.454;12.616;2022-08-21T03:38:35;8.10;;;5.30;;
7545;SDS011;3814;51.454;12.616;2022-08-21T03:41:01;8.35;;;5.18;;
7545;SDS011;3814;51.454;12.616;2022-08-21T03:43:28;9.20;;;5.55;;
7545;SDS011;3814;51.454;12.616;2022-08-21T03:45:53;8.38;;;5.30;;
7545;SDS011;3814;51.454;12.616;2022-08-21T03:48:19;8.55;;;5.00;;
7545;SDS011;3814;51.454;12.616;2022-08-21T03:50:45;7.60;;;5.43;;
7545;SDS011;3814;51.454;12.616;2022-08-21T03:53:12;7.75;;;5.10;;
7545;SDS011;3814;51.454;12.616;2022-08-21T03:55:38;8.40;;;4.68;;
7545;SDS011;3814;51.454;12.616;2022-08-21T03:58:04;7.95;;;4.80;;
7545;SDS011;3814;51.454;12.616;2022-08-21T04:00:29;7.90;;;4.82;;
7545;SDS011;3814;51.454;12.616;2022-08-21T04:02:55;9.75;;;5.55;;
7545;SDS011;3814;51.454;12.616;2022-08-21T04:05:20;8.75;;;4.88;;
7545;SDS011;3814;51.454;12.616;2022-08-21T04:07:59;7.90;;;4.80;;
7545;SDS011;3814;51.454;12.616;2022-08-21T04:10:28;9.20;;;4.72;;
7545;SDS011;3814;51.454;12.616;2022-08-21T04:12:55;8.90;;;4.75;;
7545;SDS011;3814;51.454;12.616;2022-08-21T04:15:21;10.38;;;4.57;;
7545;SDS011;3814;51.454;12.616;2022-08-21T04:17:46;7.57;;;4.40;;
7545;SDS011;3814;51.454;12.616;2022-08-21T04:20:13;7.10;;;4.30;;
7545;SDS011;3814;51.454;12.616;2022-08-21T04:22:38;8.48;;;4.72;;
7545;SDS011;3814;51.454;12.616;2022-08-21T04:25:04;7.65;;;4.80;;
7545;SDS011;3814;51.454;12.616;2022-08-21T04:27:29;6.32;;;4.53;;
7545;SDS011;3814;51.454;12.616;2022-08-21T04:29:55;9.02;;;4.90;;
7545;SDS011;3814;51.454;12.616;2022-08-21T04:32:24;6.80;;;4.68;;
7545;SDS011;3814;51.454;12.616;2022-08-21T04:34:49;7.53;;;4.93;;
7545;SDS011;3814;51.454;12.616;2022-08-21T04:37:15;6.75;;;4.72;;
7545;SDS011;3814;51.454;12.616;2022-08-21T04:39:40;7.60;;;4.32;;
7545;SDS011;3814;51.454;12.616;2022-08-21T04:42:06;8.55;;;5.20;;
7545;SDS011;3814;51.454;12.616;2022-08-21T04:44:32;9.20;;;5.13;;
7545;SDS011;3814;51.454;12.616;2022-08-21T04:46:57;8.65;;;4.90;;
7545;SDS011;3814;51.454;12.616;2022-08-21T04:49:23;7.53;;;4.63;;
7545;SDS011;3814;51.454;12.616;2022-08-21T04:51:48;7.45;;;4.90;;
7545;SDS011;3814;51.454;12.616;2022-08-21T04:54:15;8.75;;;4.72;;
7545;SDS011;3814;51.454;12.616;2022-08-21T04:56:44;8.57;;;5.00;;
7545;SDS011;3814;51.454;12.616;2022-08-21T04:59:17;7.22;;;4.65;;
7545;SDS011;3814;51.454;12.616;2022-08-21T05:01:44;8.00;;;5.05;;
7545;SDS011;3814;51.454;12.616;2022-08-21T05:04:10;7.45;;;4.45;;
7545;SDS011;3814;51.454;12.616;2022-08-21T05:06:37;6.47;;;4.38;;
7545;SDS011;3814;51.454;12.616;2022-08-21T05:09:03;9.45;;;4.30;;
7545;SDS011;3814;51.454;12.616;2022-08-21T05:11:32;8.02;;;4.72;;
7545;SDS011;3814;51.454;12.616;2022-08-21T05:13:57;6.88;;;4.72;;
7545;SDS011;3814;51.454;12.616;2022-08-21T05:16:23;8.77;;;5.10;;
7545;SDS011;3814;51.454;12.616;2022-08-21T05:18:48;7.63;;;4.55;;
7545;SDS011;3814;51.454;12.616;2022-08-21T05:21:14;7.20;;;4.68;;
7545;SDS011;3814;51.454;12.616;2022-08-21T05:23:39;7.70;;;5.28;;
7545;SDS011;3814;51.454;12.616;2022-08-21T05:26:04;9.45;;;4.82;;
7545;SDS011;3814;51.454;12.616;2022-08-21T05:28:30;11.48;;;4.75;;
7545;SDS011;3814;51.454;12.616;2022-08-21T05:30:56;12.23;;;5.60;;
7545;SDS011;3814;51.454;12.616;2022-08-21T05:33:21;10.00;;;5.90;;
7545;SDS011;3814;51.454;12.616;2022-08-21T05:35:49;10.10;;;6.28;;
7545;SDS011;3814;51.454;12.616;2022-08-21T05:38:16;8.75;;;5.82;;
7545;SDS011;3814;51.454;12.616;2022-08-21T05:40:41;11.15;;;6.40;;
7545;SDS011;3814;51.454;12.616;2022-08-21T05:43:07;12.57;;;7.68;;
7545;SDS011;3814;51.454;12.616;2022-08-21T05:45:33;12.45;;;7.13;;
7545;SDS011;3814;51.454;12.616;2022-08-21T05:48:05;12.25;;;8.07;;
7545;SDS011;3814;51.454;12.616;2022-08-21T05:50:31;13.40;;;6.97;;
7545;SDS011;3814;51.454;12.616;2022-08-21T05:52:56;11.82;;;7.13;;
7545;SDS011;3814;51.454;12.616;2022-08-21T05:55:21;9.55;;;6.95;;
7545;SDS011;3814;51.454;12.616;2022-08-21T05:57:47;9.77;;;6.35;;
7545;SDS011;3814;51.454;12.616;2022-08-21T06:00:12;8.55;;;6.13;;
7545;SDS011;3814;51.454;12.616;2022-08-21T06:02:38;9.00;;;5.90;;
7545;SDS011;3814;51.454;12.616;2022-08-21T06:05:04;11.25;;;5.60;;
7545;SDS011;3814;51.454;12.616;2022-08-21T06:07:29;12.52;;;6.00;;
7545;SDS011;3814;51.454;12.616;2022-08-21T06:09:55;8.38;;;4.95;;
7545;SDS011;3814;51.454;12.616;2022-08-21T06:12:20;9.75;;;4.93;;
7545;SDS011;3814;51.454;12.616;2022-08-21T06:14:46;7.57;;;4.82;;
7545;SDS011;3814;51.454;12.616;2022-08-21T06:17:11;7.78;;;4.97;;
7545;SDS011;3814;51.454;12.616;2022-08-21T06:19:37;8.63;;;4.90;;
7545;SDS011;3814;51.454;12.616;2022-08-21T06:22:03;8.18;;;5.15;;
7545;SDS011;3814;51.454;12.616;2022-08-21T06:24:29;9.32;;;5.35;;
7545;SDS011;3814;51.454;12.616;2022-08-21T06:26:54;6.95;;;4.20;;
7545;SDS011;3814;51.454;12.616;2022-08-21T06:29:20;6.55;;;3.53;;
7545;SDS011;3814;51.454;12.616;2022-08-21T06:31:47;5.68;;;3.92;;
7545;SDS011;3814;51.454;12.616;2022-08-21T06:34:13;7.70;;;3.70;;
7545;SDS011;3814;51.454;12.616;2022-08-21T06:36:38;8.15;;;3.95;;
7545;SDS011;3814;51.454;12.616;2022-08-21T06:39:04;10.75;;;4.40;;
7545;SDS011;3814;51.454;12.616;2022-08-21T06:41:29;9.23;;;3.90;;
7545;SDS011;3814;51.454;12.616;2022-08-21T06:43:55;6.65;;;3.45;;
7545;SDS011;3814;51.454;12.616;2022-08-21T06:46:21;7.68;;;3.60;;
7545;SDS011;3814;51.454;12.616;2022-08-21T06:48:48;9.95;;;3.90;;
7545;SDS011;3814;51.454;12.616;2022-08-21T06:51:13;8.07;;;3.45;;
7545;SDS011;3814;51.454;12.616;2022-08-21T06:53:38;7.72;;;3.50;;
7545;SDS011;3814;51.454;12.616;2022-08-21T06:56:04;7.72;;;3.53;;
7545;SDS011;3814;51.454;12.616;2022-08-21T06:58:29;5.68;;;3.33;;
7545;SDS011;3814;51.454;12.616;2022-08-21T07:00:56;5.43;;;3.22;;
7545;SDS011;3814;51.454;12.616;2022-08-21T07:03:23;7.47;;;3.40;;
7545;SDS011;3814;51.454;12.616;2022-08-21T07:05:50;10.10;;;3.25;;
7545;SDS011;3814;51.454;12.616;2022-08-21T07:08:16;5.75;;;2.90;;
7545;SDS011;3814;51.454;12.616;2022-08-21T07:10:42;7.05;;;3.33;;
7545;SDS011;3814;51.454;12.616;2022-08-21T07:13:07;10.20;;;3.35;;
7545;SDS011;3814;51.454;12.616;2022-08-21T07:15:32;9.50;;;3.63;;
7545;SDS011;3814;51.454;12.616;2022-08-21T07:17:58;6.43;;;3.13;;
7545;SDS011;3814;51.454;12.616;2022-08-21T07:20:25;6.53;;;3.47;;
7545;SDS011;3814;51.454;12.616;2022-08-21T07:22:51;4.43;;;2.72;;
7545;SDS011;3814;51.454;12.616;2022-08-21T07:25:16;5.95;;;3.13;;
7545;SDS011;3814;51.454;12.616;2022-08-21T07:27:41;5.78;;;2.83;;
7545;SDS011;3814;51.454;12.616;2022-08-21T07:30:07;4.78;;;3.05;;
7545;SDS011;3814;51.454;12.616;2022-08-21T07:32:32;7.25;;;3.13;;
7545;SDS011;3814;51.454;12.616;2022-08-21T07:34:58;5.75;;;3.03;;
7545;SDS011;3814;51.454;12.616;2022-08-21T07:37:23;4.47;;;2.80;;
7545;SDS011;3814;51.454;12.616;2022-08-21T07:39:49;5.60;;;3.30;;
7545;SDS011;3814;51.454;12.616;2022-08-21T07:42:15;5.40;;;3.15;;
7545;SDS011;3814;51.454;12.616;2022-08-21T07:44:41;7.40;;;3.20;;
7545;SDS011;3814;51.454;12.616;2022-08-21T07:47:07;5.93;;;2.95;;
7545;SDS011;3814;51.454;12.616;2022-08-21T07:49:33;8.45;;;3.13;;
7545;SDS011;3814;51.454;12.616;2022-08-21T07:51:58;9.77;;;3.13;;
7545;SDS011;3814;51.454;12.616;2022-08-21T07:54:23;5.90;;;2.53;;
7545;SDS011;3814;51.454;12.616;2022-08-21T07:56:48;5.80;;;2.80;;
7545;SDS011;3814;51.454;12.616;2022-08-21T07:59:14;5.38;;;3.10;;
7545;SDS011;3814;51.454;12.616;2022-08-21T08:01:39;6.82;;;3.50;;
7545;SDS011;3814;51.454;12.616;2022-08-21T08:04:04;4.90;;;3.30;;
7545;SDS011;3814;51.454;12.616;2022-08-21T08:06:30;5.97;;;3.08;;
7545;SDS011;3814;51.454;12.616;2022-08-21T08:08:55;5.95;;;3.05;;
7545;SDS011;3814;51.454;12.616;2022-08-21T08:11:20;7.28;;;3.45;;
7545;SDS011;3814;51.454;12.616;2022-08-21T08:13:47;6.55;;;2.92;;
7545;SDS011;3814;51.454;12.616;2022-08-21T08:16:14;4.53;;;2.70;;
7545;SDS011;3814;51.454;12.616;2022-08-21T08:18:39;4.88;;;3.00;;
7545;SDS011;3814;51.454;12.616;2022-08-21T08:21:06;5.28;;;2.95;;
7545;SDS011;3814;51.454;12.616;2022-08-21T08:23:32;7.43;;;3.08;;
7545;SDS011;3814;51.454;12.616;2022-08-21T08:25:58;8.65;;;3.22;;
7545;SDS011;3814;51.454;12.616;2022-08-21T08:28:24;6.60;;;2.83;;
7545;SDS011;3814;51.454;12.616;2022-08-21T08:30:49;4.72;;;2.72;;
7545;SDS011;3814;51.454;12.616;2022-08-21T08:33:15;5.85;;;2.63;;
7545;SDS011;3814;51.454;12.616;2022-08-21T08:35:42;5.38;;;2.60;;
7545;SDS011;3814;51.454;12.616;2022-08-21T08:38:09;4.93;;;2.63;;
7545;SDS011;3814;51.454;12.616;2022-08-21T08:40:37;7.80;;;2.90;;
7545;SDS011;3814;51.454;12.616;2022-08-21T08:43:05;6.70;;;3.20;;
7545;SDS011;3814;51.454;12.616;2022-08-21T08:45:32;9.40;;;3.75;;
7545;SDS011;3814;51.454;12.616;2022-08-21T08:48:04;5.65;;;2.80;;
7545;SDS011;3814;51.454;12.616;2022-08-21T08:50:43;6.40;;;2.65;;
7545;SDS011;3814;51.454;12.616;2022-08-21T08:53:14;5.13;;;2.47;;
7545;SDS011;3814;51.454;12.616;2022-08-21T08:55:43;5.07;;;2.40;;
7545;SDS011;3814;51.454;12.616;2022-08-21T08:58:12;4.82;;;2.13;;
7545;SDS011;3814;51.454;12.616;2022-08-21T09:00:42;3.97;;;2.17;;
7545;SDS011;3814;51.454;12.616;2022-08-21T09:03:09;3.72;;;2.20;;
7545;SDS011;3814;51.454;12.616;2022-08-21T09:05:40;4.68;;;2.33;;
7545;SDS011;3814;51.454;12.616;2022-08-21T09:11:37;5.05;;;2.50;;
7545;SDS011;3814;51.454;12.616;2022-08-21T09:14:25;6.90;;;2.50;;
7545;SDS011;3814;51.454;12.616;2022-08-21T09:17:04;3.88;;;2.25;;
7545;SDS011;3814;51.454;12.616;2022-08-21T09:19:55;4.90;;;2.50;;
7545;SDS011;3814;51.454;12.616;2022-08-21T09:22:41;4.65;;;2.00;;
7545;SDS011;3814;51.454;12.616;2022-08-21T09:27:44;4.35;;;1.90;;
7545;SDS011;3814;51.454;12.616;2022-08-21T09:30:10;6.68;;;1.90;;
7545;SDS011;3814;51.454;12.616;2022-08-21T09:32:36;5.95;;;2.10;;
7545;SDS011;3814;51.454;12.616;2022-08-21T09:37:32;4.28;;;2.03;;
7545;SDS011;3814;51.454;12.616;2022-08-21T09:42:25;5.00;;;1.97;;
7545;SDS011;3814;51.454;12.616;2022-08-21T09:47:30;5.70;;;1.98;;
7545;SDS011;3814;51.454;12.616;2022-08-21T09:49:55;4.47;;;1.70;;
7545;SDS011;3814;51.454;12.616;2022-08-21T09:52:21;8.50;;;2.00;;
7545;SDS011;3814;51.454;12.616;2022-08-21T09:54:49;3.85;;;2.25;;
7545;SDS011;3814;51.454;12.616;2022-08-21T09:57:19;3.17;;;1.73;;
7545;SDS011;3814;51.454;12.616;2022-08-21T10:02:47;6.63;;;1.92;;
7545;SDS011;3814;51.454;12.616;2022-08-21T10:05:20;5.03;;;2.15;;
7545;SDS011;3814;51.454;12.616;2022-08-21T10:07:48;3.72;;;1.70;;
7545;SDS011;3814;51.454;12.616;2022-08-21T10:10:19;3.60;;;1.90;;
7545;SDS011;3814;51.454;12.616;2022-08-21T10:13:12;5.45;;;1.67;;
7545;SDS011;3814;51.454;12.616;2022-08-21T10:18:47;5.13;;;1.83;;
7545;SDS011;3814;51.454;12.616;2022-08-21T10:21:39;6.07;;;1.80;;
7545;SDS011;3814;51.454;12.616;2022-08-21T10:24:24;4.22;;;1.55;;
7545;SDS011;3814;51.454;12.616;2022-08-21T10:29:43;4.03;;;1.63;;
7545;SDS011;3814;51.454;12.616;2022-08-21T10:34:51;5.32;;;1.73;;
7545;SDS011;3814;51.454;12.616;2022-08-21T10:40:08;3.92;;;1.70;;
7545;SDS011;3814;51.454;12.616;2022-08-21T10:48:43;4.68;;;1.90;;
7545;SDS011;3814;51.454;12.616;2022-08-21T10:51:16;5.40;;;1.88;;
7545;SDS011;3814;51.454;12.616;2022-08-21T10:54:04;4.40;;;1.73;;
7545;SDS011;3814;51.454;12.616;2022-08-21T10:56:34;5.38;;;1.70;;
7545;SDS011;3814;51.454;12.616;2022-08-21T10:59:07;7.03;;;2.00;;
7545;SDS011;3814;51.454;12.616;2022-08-21T11:01:52;4.88;;;1.90;;
7545;SDS011;3814;51.454;12.616;2022-08-21T11:04:21;4.75;;;1.85;;
7545;SDS011;3814;51.454;12.616;2022-08-21T11:06:52;4.43;;;1.85;;
7545;SDS011;3814;51.454;12.616;2022-08-21T11:09:20;4.55;;;1.67;;
7545;SDS011;3814;51.454;12.616;2022-08-21T11:11:50;5.45;;;1.88;;
7545;SDS011;3814;51.454;12.616;2022-08-21T11:14:29;3.15;;;1.63;;
7545;SDS011;3814;51.454;12.616;2022-08-21T11:17:09;5.50;;;1.90;;
7545;SDS011;3814;51.454;12.616;2022-08-21T11:22:21;6.28;;;2.00;;
7545;SDS011;3814;51.454;12.616;2022-08-21T11:27:36;5.97;;;1.85;;
7545;SDS011;3814;51.454;12.616;2022-08-21T11:30:05;4.75;;;1.90;;
7545;SDS011;3814;51.454;12.616;2022-08-21T11:35:30;3.88;;;1.95;;
7545;SDS011;3814;51.454;12.616;2022-08-21T11:40:46;4.05;;;1.90;;
7545;SDS011;3814;51.454;12.616;2022-08-21T11:46:11;5.18;;;1.90;;
7545;SDS011;3814;51.454;12.616;2022-08-21T11:48:51;5.43;;;1.85;;
7545;SDS011;3814;51.454;12.616;2022-08-21T11:51:27;5.43;;;2.05;;
7545;SDS011;3814;51.454;12.616;2022-08-21T11:54:21;7.38;;;2.03;;
7545;SDS011;3814;51.454;12.616;2022-08-21T11:56:56;4.63;;;1.95;;
7545;SDS011;3814;51.454;12.616;2022-08-21T11:59:37;4.97;;;1.90;;
7545;SDS011;3814;51.454;12.616;2022-08-21T12:02:07;4.28;;;2.00;;
7545;SDS011;3814;51.454;12.616;2022-08-21T12:04:42;5.75;;;2.15;;
7545;SDS011;3814;51.454;12.616;2022-08-21T12:07:12;3.55;;;1.98;;
7545;SDS011;3814;51.454;12.616;2022-08-21T12:09:39;3.58;;;1.83;;
7545;SDS011;3814;51.454;12.616;2022-08-21T12:17:19;5.95;;;2.00;;
7545;SDS011;3814;51.454;12.616;2022-08-21T12:19:56;3.90;;;1.98;;
7545;SDS011;3814;51.454;12.616;2022-08-21T12:22:24;4.50;;;2.03;;
7545;SDS011;3814;51.454;12.616;2022-08-21T12:25:05;7.05;;;2.20;;
7545;SDS011;3814;51.454;12.616;2022-08-21T12:28:01;7.05;;;2.10;;
7545;SDS011;3814;51.454;12.616;2022-08-21T12:32:57;6.85;;;2.10;;
7545;SDS011;3814;51.454;12.616;2022-08-21T12:35:30;5.50;;;2.00;;
7545;SDS011;3814;51.454;12.616;2022-08-21T12:41:06;4.90;;;2.10;;
7545;SDS011;3814;51.454;12.616;2022-08-21T12:43:40;5.82;;;1.92;;
7545;SDS011;3814;51.454;12.616;2022-08-21T12:46:07;5.75;;;2.20;;
7545;SDS011;3814;51.454;12.616;2022-08-21T12:51:57;4.88;;;1.90;;
7545;SDS011;3814;51.454;12.616;2022-08-21T12:54:26;5.20;;;2.28;;
7545;SDS011;3814;51.454;12.616;2022-08-21T12:57:00;4.93;;;1.90;;
7545;SDS011;3814;51.454;12.616;2022-08-21T12:59:28;6.53;;;2.10;;
7545;SDS011;3814;51.454;12.616;2022-08-21T13:01:54;4.65;;;1.88;;
7545;SDS011;3814;51.454;12.616;2022-08-21T13:04:22;4.60;;;2.22;;
7545;SDS011;3814;51.454;12.616;2022-08-21T13:07:04;5.95;;;2.33;;
7545;SDS011;3814;51.454;12.616;2022-08-21T13:09:32;4.55;;;1.90;;
7545;SDS011;3814;51.454;12.616;2022-08-21T13:11:57;4.20;;;1.90;;
7545;SDS011;3814;51.454;12.616;2022-08-21T13:14:36;5.75;;;2.15;;
7545;SDS011;3814;51.454;12.616;2022-08-21T13:17:05;6.03;;;2.13;;
7545;SDS011;3814;51.454;12.616;2022-08-21T13:19:31;5.68;;;2.28;;
7545;SDS011;3814;51.454;12.616;2022-08-21T13:21:58;3.95;;;1.85;;
7545;SDS011;3814;51.454;12.616;2022-08-21T13:24:25;6.63;;;1.92;;
7545;SDS011;3814;51.454;12.616;2022-08-21T13:26:52;7.38;;;2.00;;
7545;SDS011;3814;51.454;12.616;2022-08-21T13:29:19;5.28;;;1.90;;
7545;SDS011;3814;51.454;12.616;2022-08-21T13:34:17;6.25;;;1.73;;
7545;SDS011;3814;51.454;12.616;2022-08-21T13:36:43;3.75;;;1.77;;
7545;SDS011;3814;51.454;12.616;2022-08-21T13:39:10;5.20;;;2.00;;
7545;SDS011;3814;51.454;12.616;2022-08-21T13:41:37;4.25;;;1.70;;
7545;SDS011;3814;51.454;12.616;2022-08-21T13:44:06;4.97;;;1.90;;
7545;SDS011;3814;51.454;12.616;2022-08-21T13:46:39;6.38;;;2.10;;
7545;SDS011;3814;51.454;12.616;2022-08-21T13:49:05;6.28;;;1.92;;
7545;SDS011;3814;51.454;12.616;2022-08-21T13:51:31;6.22;;;2.10;;
7545;SDS011;3814;51.454;12.616;2022-08-21T13:53:57;7.05;;;2.00;;
7545;SDS011;3814;51.454;12.616;2022-08-21T13:56:33;5.72;;;1.90;;
7545;SDS011;3814;51.454;12.616;2022-08-21T13:59:10;4.45;;;1.92;;
7545;SDS011;3814;51.454;12.616;2022-08-21T14:01:37;6.50;;;2.22;;
7545;SDS011;3814;51.454;12.616;2022-08-21T14:04:22;5.75;;;1.90;;
7545;SDS011;3814;51.454;12.616;2022-08-21T14:06:50;5.10;;;1.95;;
7545;SDS011;3814;51.454;12.616;2022-08-21T14:11:47;4.30;;;1.85;;
7545;SDS011;3814;51.454;12.616;2022-08-21T14:14:19;3.80;;;2.00;;
7545;SDS011;3814;51.454;12.616;2022-08-21T14:16:54;7.50;;;2.00;;
7545;SDS011;3814;51.454;12.616;2022-08-21T14:19:23;4.90;;;1.80;;
7545;SDS011;3814;51.454;12.616;2022-08-21T14:21:50;5.07;;;1.90;;
7545;SDS011;3814;51.454;12.616;2022-08-21T14:27:04;7.70;;;1.80;;
7545;SDS011;3814;51.454;12.616;2022-08-21T14:29:36;5.53;;;2.10;;
7545;SDS011;3814;51.454;12.616;2022-08-21T14:32:13;6.28;;;2.00;;
7545;SDS011;3814;51.454;12.616;2022-08-21T14:34:40;5.70;;;2.28;;
7545;SDS011;3814;51.454;12.616;2022-08-21T14:37:05;4.95;;;1.90;;
7545;SDS011;3814;51.454;12.616;2022-08-21T14:39:30;5.25;;;1.90;;
7545;SDS011;3814;51.454;12.616;2022-08-21T14:41:56;5.03;;;1.75;;
7545;SDS011;3814;51.454;12.616;2022-08-21T14:44:22;3.72;;;1.88;;
7545;SDS011;3814;51.454;12.616;2022-08-21T14:46:47;4.10;;;1.88;;
7545;SDS011;3814;51.454;12.616;2022-08-21T14:49:13;6.57;;;1.98;;
7545;SDS011;3814;51.454;12.616;2022-08-21T14:51:38;4.90;;;1.70;;
7545;SDS011;3814;51.454;12.616;2022-08-21T14:54:04;5.05;;;2.00;;
7545;SDS011;3814;51.454;12.616;2022-08-21T14:56:30;5.80;;;2.05;;
7545;SDS011;3814;51.454;12.616;2022-08-21T14:58:56;4.60;;;1.75;;
7545;SDS011;3814;51.454;12.616;2022-08-21T15:01:27;4.60;;;1.90;;
7545;SDS011;3814;51.454;12.616;2022-08-21T15:03:53;6.32;;;1.80;;
7545;SDS011;3814;51.454;12.616;2022-08-21T15:06:18;4.28;;;2.00;;
7545;SDS011;3814;51.454;12.616;2022-08-21T15:11:12;4.32;;;1.75;;
7545;SDS011;3814;51.454;12.616;2022-08-21T15:13:42;5.00;;;1.98;;
7545;SDS011;3814;51.454;12.616;2022-08-21T15:16:08;4.75;;;1.80;;
7545;SDS011;3814;51.454;12.616;2022-08-21T15:18:37;5.00;;;1.83;;
7545;SDS011;3814;51.454;12.616;2022-08-21T15:21:03;5.28;;;1.95;;
7545;SDS011;3814;51.454;12.616;2022-08-21T15:23:38;3.85;;;1.65;;
7545;SDS011;3814;51.454;12.616;2022-08-21T15:26:06;3.80;;;1.88;;
7545;SDS011;3814;51.454;12.616;2022-08-21T15:28:33;4.07;;;2.00;;
7545;SDS011;3814;51.454;12.616;2022-08-21T15:30:59;5.38;;;2.00;;
7545;SDS011;3814;51.454;12.616;2022-08-21T15:33:26;3.22;;;1.73;;
7545;SDS011;3814;51.454;12.616;2022-08-21T15:35:51;4.30;;;1.75;;
7545;SDS011;3814;51.454;12.616;2022-08-21T15:38:17;5.65;;;1.80;;
7545;SDS011;3814;51.454;12.616;2022-08-21T15:40:42;4.03;;;2.00;;
7545;SDS011;3814;51.454;12.616;2022-08-21T15:43:10;4.30;;;2.10;;
7545;SDS011;3814;51.454;12.616;2022-08-21T15:45:43;5.63;;;2.00;;
7545;SDS011;3814;51.454;12.616;2022-08-21T15:48:08;4.40;;;2.00;;
7545;SDS011;3814;51.454;12.616;2022-08-21T15:50:34;5.10;;;2.10;;
7545;SDS011;3814;51.454;12.616;2022-08-21T15:52:59;5.22;;;2.20;;
7545;SDS011;3814;51.454;12.616;2022-08-21T15:55:25;4.00;;;1.83;;
7545;SDS011;3814;51.454;12.616;2022-08-21T15:57:50;5.90;;;2.03;;
7545;SDS011;3814;51.454;12.616;2022-08-21T16:00:18;7.13;;;2.63;;
7545;SDS011;3814;51.454;12.616;2022-08-21T16:02:47;4.82;;;2.05;;
7545;SDS011;3814;51.454;12.616;2022-08-21T16:05:14;4.78;;;1.90;;
7545;SDS011;3814;51.454;12.616;2022-08-21T16:07:41;5.57;;;2.00;;
7545;SDS011;3814;51.454;12.616;2022-08-21T16:10:07;4.03;;;2.10;;
7545;SDS011;3814;51.454;12.616;2022-08-21T16:12:33;47.55;;;22.00;;